< Typhoon 201312 2013 Season Typhoon 201314 >
Typhoon 201313 (PEWA)
General InformationTrack Information on Google MapsDetailed Wind InformationForecast History on Google MapsAccess Analytics MapList of All Images || NewsDisaster Info.WeblogTrackbackTyphoon FrontTwiphoonTyphoon Now!Typhoon ImaginationDisaster Info. XMLResourceGoogle EarthGE AnimationAtom FeedGeoJSON
Detalied Best Track (Time Zone = UTC)
Year Month Day Hour Lat. Long. Pressure (hPa) Wind (kt) Class Image Chart
2013 8 18 06 12.0 180.4 996 45 7 Image Chart
2013 8 18 12 12.4 179.7 996 45 3 Image Chart
2013 8 18 18 12.7 179.0 996 45 3 Image Chart
2013 8 19 00 13.3 178.4 990 55 4 Image Chart
2013 8 19 06 13.8 177.8 990 55 4 Image Chart
2013 8 19 12 14.3 177.1 990 55 4 Image Chart
2013 8 19 18 14.8 176.5 996 45 3 Image Chart
2013 8 20 00 15.3 175.6 996 45 3 Image Chart
2013 8 20 06 16.2 174.8 998 40 3 Image Chart
2013 8 20 12 17.2 173.8 998 40 3 Image Chart
2013 8 20 18 18.0 172.8 998 40 3 Image Chart
2013 8 21 00 18.6 171.8 1000 35 3 Image Chart
2013 8 21 06 19.4 171.2 1000 35 3 Image Chart
2013 8 21 12 20.2 170.5 1004 35 3 Image Chart
2013 8 21 18 21.3 170.1 1004 35 3 Image Chart
2013 8 22 00 22.2 169.7 1004 35 3 Image Chart
2013 8 22 06 23.2 169.6 1004 35 3 Image Chart
2013 8 22 12 24.2 169.3 1004 35 3 Image Chart
2013 8 22 18 25.2 168.9 1004 35 3 Image Chart
2013 8 23 00 25.8 168.5 1004 35 3 Image Chart
2013 8 23 06 26.4 168.5 1004 35 3 Image Chart
2013 8 23 12 26.8 168.9 1004 35 3 Image Chart
2013 8 23 18 27.2 169.3 1004 35 3 Image Chart
2013 8 24 00 27.5 169.3 1004 35 3 Image Chart
2013 8 24 06 27.9 168.8 1004 35 3 Image Chart
2013 8 24 12 28.2 168.1 1004 35 3 Image Chart
2013 8 24 18 28.3 167.5 1004 35 3 Image Chart
2013 8 25 00 28.5 166.9 1004 0 2 Image Chart
2013 8 25 06 28.7 166.2 1002 0 2 Image Chart
2013 8 25 12 29.0 166.0 1004 0 2 Image Chart
2013 8 25 18 29.6 165.8 1004 0 2 Image Chart
2013 8 26 00 30.8 165.3 1004 0 2 Image Chart
2013 8 26 06 32.0 165.3 1004 0 2 Image Chart
2013 8 26 12 33.4 165.6 1004 0 2 Image Chart
2013 8 26 18 35.2 165.8 1004 0 2 Image Chart
Japan Meteorological Agency Best Track Data | Correction Date : 2013-09-27
< Typhoon 201312 2013 Season Typhoon 201314 >

Help